createdAt,value
2023-05-08T00:01:32.601Z,16.39
2023-05-08T00:03:59.961Z,16.18
2023-05-08T00:06:27.953Z,16.23
2023-05-08T00:08:57.838Z,15.69
2023-05-08T00:11:25.052Z,15.66
2023-05-08T00:16:35.917Z,16.17
2023-05-08T00:19:03.233Z,16.17
2023-05-08T00:21:31.429Z,16.21
2023-05-08T00:24:16.314Z,16.16
2023-05-08T00:26:44.447Z,16.39
2023-05-08T00:29:11.836Z,16.26
2023-05-08T00:31:39.784Z,16.44
2023-05-08T00:34:06.641Z,16.52
2023-05-08T00:36:33.987Z,16.44
2023-05-08T00:39:01.005Z,16.40
2023-05-08T00:41:27.801Z,16.54
2023-05-08T00:43:55.732Z,16.61
2023-05-08T00:46:28.723Z,16.24
2023-05-08T00:48:55.859Z,16.06
2023-05-08T00:51:23.381Z,16.19
2023-05-08T00:53:50.766Z,16.14
2023-05-08T00:59:02.450Z,15.95
2023-05-08T01:01:37.435Z,16.28
2023-05-08T01:04:07.093Z,16.25
2023-05-08T01:06:40.531Z,16.16
2023-05-08T01:09:08.369Z,16.19
2023-05-08T01:11:44.633Z,15.83
2023-05-08T01:14:20.284Z,15.94
2023-05-08T01:17:01.327Z,15.84
2023-05-08T01:19:58.194Z,15.88
2023-05-08T01:22:33.972Z,15.89
2023-05-08T01:25:22.384Z,15.64
2023-05-08T01:28:26.425Z,15.84
2023-05-08T01:31:16.044Z,16.03
2023-05-08T01:34:01.320Z,15.96
2023-05-08T01:36:50.532Z,15.75
2023-05-08T01:39:55.960Z,15.61
2023-05-08T01:43:00.578Z,15.85
2023-05-08T01:45:32.993Z,15.59
2023-05-08T01:48:08.337Z,15.76
2023-05-08T01:53:38.059Z,15.74
2023-05-08T01:56:11.463Z,15.28
2023-05-08T01:58:42.418Z,14.97
2023-05-08T02:01:11.879Z,14.84
2023-05-08T02:03:50.902Z,14.87
2023-05-08T02:06:21.463Z,14.87
2023-05-08T02:08:50.033Z,14.84
2023-05-08T02:11:18.791Z,14.95
2023-05-08T02:13:51.173Z,14.92
2023-05-08T02:16:19.182Z,15.24
2023-05-08T02:18:52.511Z,15.11
2023-05-08T02:21:29.992Z,15.12
2023-05-08T02:23:58.293Z,15.26
2023-05-08T02:29:09.083Z,15.38
2023-05-08T02:31:37.547Z,15.11
2023-05-08T02:34:05.450Z,14.99
2023-05-08T02:36:36.106Z,14.51
2023-05-08T02:39:03.641Z,14.61
2023-05-08T02:41:33.723Z,14.25
2023-05-08T02:44:01.046Z,14.63
2023-05-08T02:46:49.053Z,14.85
2023-05-08T02:49:19.329Z,14.89
2023-05-08T02:52:18.531Z,14.70
2023-05-08T02:55:03.856Z,14.66
2023-05-08T02:57:43.888Z,14.40
2023-05-08T03:00:14.095Z,14.57
2023-05-08T03:02:44.701Z,14.46
2023-05-08T03:05:19.442Z,14.37
2023-05-08T03:07:50.555Z,14.36
2023-05-08T03:10:19.299Z,14.45
2023-05-08T03:12:58.642Z,14.48
2023-05-08T03:15:39.662Z,14.52
2023-05-08T03:26:21.541Z,14.79
2023-05-08T03:28:53.805Z,14.72
2023-05-08T03:31:22.716Z,14.48
2023-05-08T03:33:53.561Z,14.89
2023-05-08T03:36:24.552Z,14.57
2023-05-08T03:38:51.411Z,14.96
2023-05-08T03:41:18.265Z,14.77
2023-05-08T03:43:46.510Z,14.69
2023-05-08T03:54:11.696Z,14.45
2023-05-08T03:56:38.609Z,14.48
2023-05-08T03:59:13.353Z,14.63
2023-05-08T04:01:46.292Z,14.87
2023-05-08T04:04:39.052Z,14.42
2023-05-08T04:07:35.176Z,14.54
2023-05-08T04:10:26.110Z,14.87
2023-05-08T04:13:14.598Z,14.34
2023-05-08T04:16:05.019Z,14.16
2023-05-08T04:18:36.874Z,14.21
2023-05-08T04:21:08.931Z,14.14
2023-05-08T04:23:37.642Z,14.17
2023-05-08T04:26:06.751Z,14.57
2023-05-08T04:28:35.303Z,15.07
2023-05-08T04:31:04.167Z,15.03
2023-05-08T04:33:31.383Z,15.01
2023-05-08T04:36:05.215Z,15.58
2023-05-08T04:38:36.079Z,15.62
2023-05-08T04:41:02.903Z,15.59
2023-05-08T04:43:29.884Z,15.60
2023-05-08T04:45:56.755Z,16.28
2023-05-08T04:48:23.390Z,16.82
2023-05-08T04:50:52.488Z,17.00
2023-05-08T04:53:31.386Z,16.09
2023-05-08T04:56:04.564Z,16.60
2023-05-08T04:58:31.475Z,16.19
2023-05-08T05:01:02.534Z,15.17
2023-05-08T05:03:29.513Z,15.49
2023-05-08T05:06:04.820Z,15.46
2023-05-08T05:08:31.672Z,15.96
2023-05-08T05:10:58.477Z,15.04
2023-05-08T05:13:43.876Z,15.35
2023-05-08T05:16:21.056Z,15.85
2023-05-08T05:18:50.397Z,15.64
2023-05-08T05:21:17.315Z,16.00
2023-05-08T05:23:53.182Z,16.52
2023-05-08T05:26:21.800Z,16.70
2023-05-08T05:28:49.122Z,16.85
2023-05-08T05:31:16.242Z,16.52
2023-05-08T05:33:43.256Z,16.01
2023-05-08T05:36:10.167Z,17.29
2023-05-08T05:38:37.017Z,17.29
2023-05-08T05:41:03.892Z,16.95
2023-05-08T05:43:39.519Z,16.95
2023-05-08T05:46:07.814Z,17.61
2023-05-08T05:48:34.681Z,18.29
2023-05-08T05:51:05.850Z,18.37
2023-05-08T05:53:40.860Z,18.17
2023-05-08T05:58:52.020Z,17.35
2023-05-08T06:01:19.085Z,18.01
2023-05-08T06:03:46.208Z,16.92
2023-05-08T06:06:13.418Z,17.88
2023-05-08T06:08:53.751Z,17.12
2023-05-08T06:11:22.857Z,17.42
2023-05-08T06:13:50.689Z,18.89
2023-05-08T06:16:17.645Z,17.93
2023-05-08T06:21:39.929Z,17.02
2023-05-08T06:24:07.908Z,17.28
2023-05-08T06:26:37.187Z,17.27
2023-05-08T06:29:04.708Z,16.84
2023-05-08T06:31:31.758Z,17.58
2023-05-08T06:33:59.019Z,19.17
2023-05-08T06:36:27.424Z,19.53
2023-05-08T06:38:57.511Z,20.11
2023-05-08T06:41:38.040Z,19.80
2023-05-08T06:44:04.899Z,19.50
2023-05-08T06:46:31.659Z,20.17
2023-05-08T06:48:58.596Z,19.54
2023-05-08T06:51:27.681Z,21.53
2023-05-08T06:53:54.567Z,22.00
2023-05-08T06:56:22.860Z,21.53
2023-05-08T06:58:57.103Z,22.11
2023-05-08T07:01:32.834Z,22.12
2023-05-08T07:03:59.671Z,22.27
2023-05-08T07:06:27.742Z,22.49
2023-05-08T07:08:55.877Z,22.83
2023-05-08T07:11:22.724Z,21.99
2023-05-08T07:13:52.521Z,22.55
2023-05-08T07:16:19.408Z,23.38
2023-05-08T07:18:46.176Z,22.73
2023-05-08T07:21:13.354Z,22.90
2023-05-08T07:23:40.238Z,23.37
2023-05-08T07:26:08.358Z,22.69
2023-05-08T07:28:35.634Z,22.99
2023-05-08T07:31:07.520Z,23.57
2023-05-08T07:33:34.802Z,22.80
2023-05-08T07:36:02.016Z,23.60
2023-05-08T07:38:29.150Z,23.12
2023-05-08T07:40:57.635Z,23.74
2023-05-08T07:43:24.560Z,23.96
2023-05-08T07:45:51.539Z,23.95
2023-05-08T07:50:59.190Z,23.83
2023-05-08T07:53:26.225Z,24.44
2023-05-08T07:55:53.100Z,23.95
2023-05-08T07:58:21.593Z,23.94
2023-05-08T08:00:49.442Z,24.80
2023-05-08T08:03:16.295Z,24.58
2023-05-08T08:05:43.246Z,24.29
2023-05-08T08:08:10.163Z,25.01
2023-05-08T08:10:37.026Z,24.93
2023-05-08T08:13:04.220Z,24.63
2023-05-08T08:15:31.320Z,24.50
2023-05-08T08:17:58.186Z,25.19
2023-05-08T08:20:25.334Z,24.79
2023-05-08T08:22:52.068Z,25.45
2023-05-08T08:25:21.226Z,25.25
2023-05-08T08:27:48.318Z,24.73
2023-05-08T08:30:17.554Z,24.64
2023-05-08T08:32:46.195Z,25.09
2023-05-08T08:35:13.939Z,24.87
2023-05-08T08:37:41.096Z,24.51
2023-05-08T08:40:08.502Z,24.19
2023-05-08T08:42:35.685Z,25.01
2023-05-08T08:45:02.697Z,25.37
2023-05-08T08:47:34.957Z,26.11
2023-05-08T08:50:04.090Z,25.26
2023-05-08T08:52:39.016Z,25.49
2023-05-08T08:55:10.304Z,26.28
2023-05-08T08:57:43.800Z,26.46
2023-05-08T09:00:12.406Z,26.24
2023-05-08T09:02:50.077Z,25.48
2023-05-08T09:05:18.237Z,25.43
2023-05-08T09:07:45.340Z,25.98
2023-05-08T09:10:15.613Z,26.35
2023-05-08T09:12:42.946Z,26.03
2023-05-08T09:15:10.019Z,25.54
2023-05-08T09:17:37.038Z,26.09
2023-05-08T09:20:05.580Z,24.79
2023-05-08T09:22:36.013Z,24.45
2023-05-08T09:25:12.523Z,24.48
2023-05-08T09:27:39.779Z,24.38
2023-05-08T09:30:11.753Z,24.01
2023-05-08T09:32:42.398Z,23.49
2023-05-08T09:35:10.524Z,23.83
2023-05-08T09:37:43.957Z,23.80
2023-05-08T09:40:21.973Z,23.61
2023-05-08T09:42:50.697Z,22.90
2023-05-08T09:45:32.018Z,23.01
2023-05-08T09:47:59.538Z,22.86
2023-05-08T09:50:26.955Z,22.61
2023-05-08T09:52:53.708Z,22.60
2023-05-08T09:55:29.793Z,22.52
2023-05-08T09:57:58.646Z,22.58
2023-05-08T10:00:27.425Z,22.35
2023-05-08T10:03:15.525Z,21.65
2023-05-08T10:05:42.910Z,21.03
2023-05-08T10:08:26.753Z,21.03
2023-05-08T10:10:53.961Z,21.13
2023-05-08T10:13:21.791Z,20.82
2023-05-08T10:15:54.835Z,21.14
2023-05-08T10:18:29.258Z,21.07
2023-05-08T10:20:57.780Z,21.13
2023-05-08T10:23:25.656Z,21.21
2023-05-08T10:25:58.948Z,21.80
2023-05-08T10:28:51.356Z,21.53
2023-05-08T10:31:18.993Z,21.54
2023-05-08T10:33:49.076Z,21.65
2023-05-08T10:36:17.120Z,21.50
2023-05-08T10:38:44.949Z,21.52
2023-05-08T10:41:12.749Z,21.27
2023-05-08T10:43:51.247Z,21.11
2023-05-08T10:49:30.528Z,20.96
2023-05-08T10:52:19.042Z,20.82
2023-05-08T10:55:06.488Z,20.92
2023-05-08T10:57:33.236Z,20.68
2023-05-08T11:00:12.757Z,20.56
2023-05-08T11:02:39.838Z,20.76
2023-05-08T11:05:20.815Z,20.90
2023-05-08T11:07:58.483Z,21.10
2023-05-08T11:10:37.333Z,20.41
2023-05-08T11:13:07.636Z,20.50
2023-05-08T11:15:39.088Z,20.91
2023-05-08T11:18:11.562Z,21.31
2023-05-08T11:20:54.762Z,21.41
2023-05-08T11:23:22.914Z,22.05
2023-05-08T11:26:17.899Z,21.72
2023-05-08T11:28:53.807Z,21.97
2023-05-08T11:31:29.727Z,22.70
2023-05-08T11:33:59.692Z,22.72
2023-05-08T11:36:26.784Z,23.03
2023-05-08T11:39:13.434Z,23.71
2023-05-08T11:41:43.800Z,23.72
2023-05-08T11:44:20.781Z,22.23
2023-05-08T11:49:37.677Z,23.11
2023-05-08T11:52:08.810Z,23.06
2023-05-08T11:54:39.298Z,23.93
2023-05-08T11:57:09.352Z,23.85
2023-05-08T11:59:37.207Z,23.64
2023-05-08T12:04:48.240Z,23.09
2023-05-08T12:09:57.518Z,22.77
2023-05-08T12:12:24.557Z,22.75
2023-05-08T12:14:52.454Z,22.82
2023-05-08T12:17:19.964Z,22.86
2023-05-08T12:19:49.946Z,23.04
2023-05-08T12:22:17.010Z,23.24
2023-05-08T12:24:44.477Z,23.27
2023-05-08T12:27:13.222Z,23.66
2023-05-08T12:29:45.184Z,23.38
2023-05-08T12:34:53.152Z,23.42
2023-05-08T12:37:29.749Z,23.64
2023-05-08T12:39:56.723Z,23.65
2023-05-08T12:42:41.411Z,23.47
2023-05-08T12:45:09.015Z,23.39
2023-05-08T12:47:35.881Z,23.37
2023-05-08T12:50:02.927Z,23.24
2023-05-08T12:52:29.735Z,23.27
2023-05-08T12:54:56.538Z,23.33
2023-05-08T12:57:26.194Z,23.13
2023-05-08T13:00:04.994Z,23.06
2023-05-08T13:02:32.415Z,23.19
2023-05-08T13:05:10.629Z,23.28
2023-05-08T13:07:37.908Z,23.08
2023-05-08T13:10:05.274Z,22.91
2023-05-08T13:12:57.220Z,22.88
2023-05-08T13:15:24.228Z,23.06
2023-05-08T13:17:51.605Z,23.45
2023-05-08T13:20:38.693Z,23.06
2023-05-08T13:23:06.248Z,23.43
2023-05-08T13:25:39.497Z,23.89
2023-05-08T13:28:07.478Z,24.24
2023-05-08T13:30:50.152Z,23.94
2023-05-08T13:33:17.242Z,23.58
2023-05-08T13:35:44.204Z,23.36
2023-05-08T13:38:10.926Z,23.50
2023-05-08T13:40:38.846Z,23.75
2023-05-08T13:43:11.428Z,23.53
2023-05-08T13:45:38.333Z,23.58
2023-05-08T13:48:05.856Z,23.29
2023-05-08T13:50:35.698Z,23.77
2023-05-08T13:53:02.540Z,23.61
2023-05-08T13:55:38.923Z,23.77
2023-05-08T13:58:05.728Z,23.01
2023-05-08T14:00:32.474Z,23.13
2023-05-08T14:02:59.290Z,23.30
2023-05-08T14:05:28.507Z,23.49
2023-05-08T14:07:55.349Z,23.64
2023-05-08T14:10:28.129Z,24.11
2023-05-08T14:15:37.279Z,23.69
2023-05-08T14:18:04.533Z,23.78
2023-05-08T14:20:31.320Z,23.58
2023-05-08T14:23:04.652Z,23.71
2023-05-08T14:25:31.517Z,23.43
2023-05-08T14:30:37.559Z,23.28
2023-05-08T14:33:04.757Z,23.29
2023-05-08T14:35:31.585Z,23.11
2023-05-08T14:37:58.491Z,22.94
2023-05-08T14:40:25.524Z,22.90
2023-05-08T14:42:55.277Z,22.67
2023-05-08T14:45:22.878Z,22.55
2023-05-08T14:47:55.398Z,22.51
2023-05-08T14:50:24.310Z,22.12
2023-05-08T14:52:51.259Z,21.31
2023-05-08T14:55:21.253Z,20.42
2023-05-08T14:57:48.559Z,19.70
2023-05-08T15:00:16.863Z,19.18
2023-05-08T15:02:45.069Z,18.57
2023-05-08T15:05:19.150Z,18.50
2023-05-08T15:07:47.208Z,18.79
2023-05-08T15:10:15.872Z,18.39
2023-05-08T15:12:48.076Z,18.50
2023-05-08T15:15:24.610Z,18.36
2023-05-08T15:17:55.783Z,18.30
2023-05-08T15:20:23.236Z,18.51
2023-05-08T15:22:50.082Z,18.37
2023-05-08T15:25:17.422Z,18.26
2023-05-08T15:27:44.341Z,18.32
2023-05-08T15:30:11.855Z,18.35
2023-05-08T15:32:40.445Z,18.06
2023-05-08T15:35:07.539Z,18.29
2023-05-08T15:37:34.250Z,18.03
2023-05-08T15:40:01.095Z,17.97
2023-05-08T15:42:27.884Z,18.19
2023-05-08T15:44:57.948Z,17.98
2023-05-08T15:47:27.393Z,17.53
2023-05-08T15:49:54.786Z,17.25
2023-05-08T15:52:22.875Z,17.21
2023-05-08T15:54:54.987Z,17.22
2023-05-08T15:57:27.262Z,17.62
2023-05-08T15:59:54.334Z,17.63
2023-05-08T16:02:21.251Z,17.12
2023-05-08T16:04:50.914Z,17.45
2023-05-08T16:07:17.981Z,17.16
2023-05-08T16:09:47.930Z,17.25
2023-05-08T16:12:14.950Z,17.38
2023-05-08T16:14:48.956Z,17.47
2023-05-08T16:17:16.071Z,17.35
2023-05-08T16:19:42.866Z,17.56
2023-05-08T16:22:26.844Z,17.47
2023-05-08T16:24:59.930Z,17.70
2023-05-08T16:27:28.803Z,17.58
2023-05-08T16:29:58.511Z,17.30
2023-05-08T16:32:27.362Z,17.70
2023-05-08T16:34:58.302Z,17.58
2023-05-08T16:37:26.276Z,17.73
2023-05-08T16:39:55.785Z,17.61
2023-05-08T16:42:23.926Z,17.56
2023-05-08T16:44:50.882Z,17.81
2023-05-08T16:47:18.382Z,17.95
2023-05-08T16:49:45.484Z,17.56
2023-05-08T16:52:17.549Z,17.80
2023-05-08T16:54:50.015Z,17.28
2023-05-08T16:57:17.277Z,17.20
2023-05-08T16:59:46.752Z,17.40
2023-05-08T17:02:19.866Z,17.40
2023-05-08T17:04:51.494Z,17.50
2023-05-08T17:07:20.158Z,17.65
2023-05-08T17:09:49.404Z,17.54
2023-05-08T17:12:16.154Z,17.30
2023-05-08T17:14:43.027Z,17.29
2023-05-08T17:17:10.000Z,17.15
2023-05-08T17:19:36.916Z,17.17
2023-05-08T17:22:03.645Z,17.04
2023-05-08T17:24:31.408Z,17.20
2023-05-08T17:26:58.952Z,17.09
2023-05-08T17:29:25.999Z,17.12
2023-05-08T17:31:53.070Z,17.35
2023-05-08T17:34:21.067Z,17.70
2023-05-08T17:36:47.917Z,17.65
2023-05-08T17:39:15.060Z,17.49
2023-05-08T17:41:41.962Z,17.73
2023-05-08T17:44:08.979Z,17.72
2023-05-08T17:46:35.946Z,17.42
2023-05-08T17:49:02.735Z,17.63
2023-05-08T17:51:29.695Z,17.80
2023-05-08T17:53:56.930Z,17.26
2023-05-08T17:56:23.970Z,17.39
2023-05-08T17:58:52.587Z,17.52
2023-05-08T18:01:33.848Z,17.42
2023-05-08T18:06:49.836Z,17.80
2023-05-08T18:09:16.793Z,17.26
2023-05-08T18:11:43.699Z,17.55
2023-05-08T18:14:12.186Z,17.69
2023-05-08T18:16:40.747Z,17.52
2023-05-08T18:19:07.552Z,17.40
2023-05-08T18:21:34.322Z,17.64
2023-05-08T18:24:01.154Z,17.59
2023-05-08T18:26:27.980Z,17.61
2023-05-08T18:28:58.025Z,17.26
2023-05-08T18:31:25.433Z,17.34
2023-05-08T18:33:52.316Z,17.03
2023-05-08T18:36:27.669Z,17.38
2023-05-08T18:38:54.563Z,17.06
2023-05-08T18:41:27.346Z,17.04
2023-05-08T18:43:54.303Z,17.23
2023-05-08T18:46:27.310Z,17.28
2023-05-08T18:48:54.151Z,17.36
2023-05-08T18:51:27.457Z,17.51
2023-05-08T18:53:57.262Z,17.58
2023-05-08T18:56:24.366Z,17.27
2023-05-08T18:58:51.168Z,17.25
2023-05-08T19:01:27.102Z,17.01
2023-05-08T19:03:54.532Z,17.01
2023-05-08T19:06:21.480Z,17.13
2023-05-08T19:08:48.618Z,17.25
2023-05-08T19:11:16.048Z,17.05
2023-05-08T19:13:42.762Z,16.82
2023-05-08T19:16:09.688Z,16.93
2023-05-08T19:18:36.776Z,16.56
2023-05-08T19:21:03.831Z,16.93
2023-05-08T19:23:30.947Z,16.57
2023-05-08T19:25:58.528Z,16.79
2023-05-08T19:28:25.462Z,16.64
2023-05-08T19:30:52.769Z,16.88
2023-05-08T19:33:22.268Z,16.86
2023-05-08T19:35:49.156Z,16.73
2023-05-08T19:38:16.141Z,16.79
2023-05-08T19:40:55.450Z,16.60
2023-05-08T19:43:23.969Z,16.32
2023-05-08T19:45:50.941Z,16.40
2023-05-08T19:48:19.633Z,16.46
2023-05-08T19:53:37.592Z,16.47
2023-05-08T19:56:05.110Z,16.21
2023-05-08T19:58:32.024Z,16.34
2023-05-08T20:00:59.346Z,16.30
2023-05-08T20:03:26.785Z,16.20
2023-05-08T20:05:53.887Z,16.45
2023-05-08T20:08:21.090Z,16.34
2023-05-08T20:10:50.669Z,16.28
2023-05-08T20:13:17.884Z,16.12
2023-05-08T20:15:44.859Z,16.32
2023-05-08T20:18:11.961Z,16.23
2023-05-08T20:20:38.855Z,16.23
2023-05-08T20:23:05.784Z,16.04
2023-05-08T20:25:34.745Z,16.15
2023-05-08T20:28:01.806Z,16.23
2023-05-08T20:30:29.889Z,16.35
2023-05-08T20:33:02.416Z,16.48
2023-05-08T20:35:29.504Z,16.22
2023-05-08T20:37:58.887Z,16.13
2023-05-08T20:40:29.524Z,16.21
2023-05-08T20:42:56.587Z,16.01
2023-05-08T20:45:24.272Z,16.43
2023-05-08T20:47:53.708Z,16.11
2023-05-08T20:52:56.889Z,16.54
2023-05-08T20:55:33.325Z,16.21
2023-05-08T20:58:20.209Z,16.33
2023-05-08T21:00:47.521Z,16.18
2023-05-08T21:03:14.882Z,15.87
2023-05-08T21:05:50.955Z,15.95
2023-05-08T21:08:21.741Z,15.87
2023-05-08T21:10:55.263Z,15.93
2023-05-08T21:13:22.777Z,15.85
2023-05-08T21:15:52.677Z,15.73
2023-05-08T21:18:19.897Z,15.60
2023-05-08T21:20:50.483Z,15.37
2023-05-08T21:23:18.722Z,15.59
2023-05-08T21:25:49.531Z,15.67
2023-05-08T21:28:18.162Z,15.56
2023-05-08T21:30:45.708Z,15.50
2023-05-08T21:33:14.170Z,15.45
2023-05-08T21:35:43.900Z,15.60
2023-05-08T21:38:13.947Z,15.41
2023-05-08T21:40:40.920Z,15.64
2023-05-08T21:43:08.106Z,15.52
2023-05-08T21:45:38.705Z,15.85
2023-05-08T21:48:09.439Z,15.56
2023-05-08T21:50:39.181Z,15.87
2023-05-08T21:53:06.564Z,15.76
2023-05-08T21:55:37.561Z,15.68
2023-05-08T21:58:09.157Z,15.60
2023-05-08T22:03:18.719Z,15.67
2023-05-08T22:05:45.768Z,15.69
2023-05-08T22:08:19.630Z,15.92
2023-05-08T22:10:46.673Z,15.66
2023-05-08T22:13:13.883Z,15.73
2023-05-08T22:15:40.807Z,15.71
2023-05-08T22:18:07.998Z,15.74
2023-05-08T22:20:34.936Z,15.44
2023-05-08T22:23:01.801Z,15.33
2023-05-08T22:25:30.054Z,15.55
2023-05-08T22:27:56.874Z,15.61
2023-05-08T22:30:23.926Z,15.60
2023-05-08T22:32:56.236Z,15.67
2023-05-08T22:35:25.426Z,15.61
2023-05-08T22:37:56.116Z,15.51
2023-05-08T22:40:23.606Z,15.35
2023-05-08T22:42:55.926Z,15.69
2023-05-08T22:45:23.418Z,15.38
2023-05-08T22:47:50.639Z,15.33
2023-05-08T22:50:17.568Z,15.39
2023-05-08T22:52:44.538Z,15.50
2023-05-08T22:55:11.882Z,15.61
2023-05-08T22:57:38.978Z,15.58
2023-05-08T23:00:21.898Z,15.81
2023-05-08T23:02:52.010Z,15.80
2023-05-08T23:05:19.017Z,15.63
2023-05-08T23:10:26.789Z,15.19
2023-05-08T23:12:53.796Z,15.50
2023-05-08T23:15:21.340Z,15.38
2023-05-08T23:17:51.692Z,15.41
2023-05-08T23:20:28.771Z,15.31
2023-05-08T23:23:03.426Z,15.54
2023-05-08T23:26:21.768Z,15.34
2023-05-08T23:28:56.505Z,15.37
2023-05-08T23:31:23.857Z,15.51
2023-05-08T23:34:04.339Z,15.36
2023-05-08T23:36:32.521Z,15.28
2023-05-08T23:38:59.663Z,15.14
2023-05-08T23:41:26.428Z,15.42
2023-05-08T23:43:53.294Z,15.40
2023-05-08T23:46:20.355Z,15.22
2023-05-08T23:48:47.232Z,14.88
2023-05-08T23:51:14.187Z,14.89
2023-05-08T23:53:41.462Z,15.17
2023-05-08T23:56:08.261Z,15.39
2023-05-08T23:58:37.840Z,15.42
